Genesee, Michigan
Current Conditions -  °F | °C
As of 2:53 PM on Sunday 23 Nov 2014 (Local Time) from KFNT Reporting Station
Overcast Overcast  
Wind Chill: 52°   Ceiling: 4000
Heat Index: 52°   Visibility: 10mi
Dew Point: 45°   Wind: 13mph
Humidity: 77%   Direction: 170°S
Pressure: 29.73"   Gusts: NA
Location:  43.11°N, 83.62°W
Report Text: KFNT 231953Z 17011KT 10SM OVC040 11/07 A2973 RMK AO2 SLP070 T01110072
Loading
Personal Weather Stations






























Interactive Weather Map New forecast layout! Learn more

10-Day Weather Forecast

Advertisements
Track Severe Weather on mobile